Audrey — WDF3335 — position and weather

sailwx.info

Track history (hours):
 
Tides and Currents Weather Stations Pressure Air Temp Water Temp Dewpoint Dewpoint Depression Visibility Wind Speed Wind Dir Waves Ship Positions

Audrey

Owner: G & H Towing Company, Galveston, TX. More information available from US FCC via Universal Licensing System and Coast Guard Vessel Documentation Center.

Last reported at 2018-Jan-22 12:17 UTC. Time now 2018-Jan-22 12:41 UTC.
Position N 29°42' W 095°01'.

Length 29 m; draft 4.5 m.

Type: Tug. MMSI: 367438690.

Date/timePositionNaut miles runAvg speedWind from/ knotsBaromVisibWave heightAir tempDewpointWater temp
2018-Jan-22 12:17N 29°42' W 095°01'0 0.0
2018-Jan-21 23:28N 29°42' W 095°01'2 0.3
2018-Jan-21 16:50N 29°41' W 094°59'0 0.0
2018-Jan-21 16:26N 29°41' W 094°59'0 0.0
2018-Jan-21 15:56N 29°41' W 094°59'0 0.0
2018-Jan-20 23:48N 29°41' W 094°59'0 0.0
2018-Jan-20 23:07N 29°41' W 094°59'0 0.0
2018-Jan-20 23:00N 29°41' W 094°59'0 0.0
2018-Jan-20 22:30N 29°41' W 094°59'0 0.0
2018-Jan-20 21:55N 29°41' W 094°59'0 0.0
2018-Jan-20 21:29N 29°41' W 094°59'0 0.0
2018-Jan-20 20:57N 29°41' W 094°59'0 0.0
2018-Jan-20 20:23N 29°41' W 094°59'0 0.0
2018-Jan-20 19:57N 29°41' W 094°59'0 0.0
2018-Jan-20 19:16N 29°41' W 094°59'1 2.2
2018-Jan-20 19:00N 29°41' W 094°60'1 1.7
2018-Jan-20 18:30N 29°41' W 094°59'1 2.1
2018-Jan-20 18:00N 29°41' W 095°00'1 0.1
2018-Jan-20 04:57N 29°42' W 095°01'2 2.2
2018-Jan-20 04:04N 29°41' W 094°59'0 0.1
2018-Jan-20 03:35N 29°41' W 094°59'0 2.4
2018-Jan-20 03:28N 29°41' W 094°59'0 0.0
2018-Jan-20 03:00N 29°41' W 094°59'0 0.1
2018-Jan-20 02:30N 29°41' W 094°59'0 0.0
2018-Jan-20 01:57N 29°41' W 094°59'0 0.4
2018-Jan-20 01:14N 29°41' W 094°59'0 0.0
2018-Jan-20 00:59N 29°41' W 094°59'0 0.0
2018-Jan-20 00:26N 29°41' W 094°59'0 0.0
2018-Jan-20 00:00N 29°41' W 094°59'4 7.1
2018-Jan-19 23:25N 29°37' W 094°59'1 2.9
2018-Jan-19 23:00N 29°37' W 095°00'1 2.1
2018-Jan-19 22:30N 29°37' W 095°01'1 2.9
2018-Jan-19 22:00N 29°37' W 094°60'0 0.7
2018-Jan-19 21:26N 29°37' W 095°00'0 0.0
2018-Jan-19 20:53N 29°37' W 095°00'0 0.0
2018-Jan-19 20:29N 29°37' W 095°00'0 0.0
2018-Jan-19 19:59N 29°37' W 095°00'0 0.0
2018-Jan-19 19:29N 29°37' W 095°00'0 0.0
2018-Jan-19 18:59N 29°37' W 095°00'0 0.0
2018-Jan-19 18:26N 29°37' W 095°00'0 0.0
2018-Jan-19 17:59N 29°37' W 095°00'0 0.6
2018-Jan-19 17:30N 29°37' W 095°00'0 0.1
2018-Jan-19 17:00N 29°37' W 095°00'1 1.4
2018-Jan-19 16:30N 29°37' W 095°01'2 3.8
2018-Jan-19 16:00N 29°37' W 094°59'3 6.2
2018-Jan-19 15:29N 29°35' W 094°56'3 4.8
2018-Jan-19 14:54N 29°37' W 094°58'2 3.9
2018-Jan-19 14:30N 29°37' W 095°00'0 0.0
2018-Jan-19 14:00N 29°37' W 095°00'0 0.0
2018-Jan-19 13:30N 29°37' W 095°00'0 0.0
2018-Jan-19 13:00N 29°37' W 095°00'0 0.1
2018-Jan-19 12:30N 29°37' W 095°00'0 0.1
2018-Jan-19 12:00N 29°37' W 095°00'1 1.8
2018-Jan-19 11:30N 29°37' W 094°59'3 6.7
2018-Jan-19 11:00N 29°40' W 094°59'3 0.7
2018-Jan-19 06:32N 29°42' W 095°01'0 0.2
2018-Jan-19 06:29N 29°42' W 095°01'0 0.0
2018-Jan-19 02:40N 29°42' W 095°01'0 0.0
2018-Jan-18 07:22N 29°42' W 095°01'1 0.9
2018-Jan-18 05:49N 29°44' W 095°01'1 2.5
2018-Jan-18 05:25N 29°43' W 095°01'0 0.3
2018-Jan-18 03:59N 29°42' W 095°01'2 1.4
2018-Jan-18 02:36N 29°41' W 094°59'0 3.9
2018-Jan-18 02:30N 29°41' W 094°60'0 0.0
2018-Jan-18 02:00N 29°41' W 094°60'0 0.0
2018-Jan-18 01:31N 29°41' W 094°60'0 0.0
2018-Jan-18 00:53N 29°41' W 094°60'0 0.0
2018-Jan-17 23:57N 29°41' W 094°60'  
Track history (hours):
 
Tides and Currents Weather Stations Pressure Air Temp Water Temp Dewpoint Dewpoint Depression Visibility Wind Speed Wind Dir Waves Ship Positions

Audrey

Owner: G & H Towing Company, Galveston, TX. More information available from US FCC via Universal Licensing System and Coast Guard Vessel Documentation Center.

Last reported at 2018-Jan-22 12:17 UTC. Time now 2018-Jan-22 12:41 UTC.
Position N 29°42' W 095°01'.

Length 29 m; draft 4.5 m.

Type: Tug. MMSI: 367438690.

Date/timePositionNaut miles runAvg speedWind from/ knotsBaromVisibWave heightAir tempDewpointWater temp
2018-Jan-22 12:17N 29°42' W 095°01'0 0.0
2018-Jan-21 23:28N 29°42' W 095°01'2 0.3
2018-Jan-21 16:50N 29°41' W 094°59'0 0.0
2018-Jan-21 16:26N 29°41' W 094°59'0 0.0
2018-Jan-21 15:56N 29°41' W 094°59'0 0.0
2018-Jan-20 23:48N 29°41' W 094°59'0 0.0
2018-Jan-20 23:07N 29°41' W 094°59'0 0.0
2018-Jan-20 23:00N 29°41' W 094°59'0 0.0
2018-Jan-20 22:30N 29°41' W 094°59'0 0.0
2018-Jan-20 21:55N 29°41' W 094°59'0 0.0
2018-Jan-20 21:29N 29°41' W 094°59'0 0.0
2018-Jan-20 20:57N 29°41' W 094°59'0 0.0
2018-Jan-20 20:23N 29°41' W 094°59'0 0.0
2018-Jan-20 19:57N 29°41' W 094°59'0 0.0
2018-Jan-20 19:16N 29°41' W 094°59'1 2.2
2018-Jan-20 19:00N 29°41' W 094°60'1 1.7
2018-Jan-20 18:30N 29°41' W 094°59'1 2.1
2018-Jan-20 18:00N 29°41' W 095°00'1 0.1
2018-Jan-20 04:57N 29°42' W 095°01'2 2.2
2018-Jan-20 04:04N 29°41' W 094°59'0 0.1
2018-Jan-20 03:35N 29°41' W 094°59'0 2.4
2018-Jan-20 03:28N 29°41' W 094°59'0 0.0
2018-Jan-20 03:00N 29°41' W 094°59'0 0.1
2018-Jan-20 02:30N 29°41' W 094°59'0 0.0
2018-Jan-20 01:57N 29°41' W 094°59'0 0.4
2018-Jan-20 01:14N 29°41' W 094°59'0 0.0
2018-Jan-20 00:59N 29°41' W 094°59'0 0.0
2018-Jan-20 00:26N 29°41' W 094°59'0 0.0
2018-Jan-20 00:00N 29°41' W 094°59'4 7.1
2018-Jan-19 23:25N 29°37' W 094°59'1 2.9
2018-Jan-19 23:00N 29°37' W 095°00'1 2.1
2018-Jan-19 22:30N 29°37' W 095°01'1 2.9
2018-Jan-19 22:00N 29°37' W 094°60'0 0.7
2018-Jan-19 21:26N 29°37' W 095°00'0 0.0
2018-Jan-19 20:53N 29°37' W 095°00'0 0.0
2018-Jan-19 20:29N 29°37' W 095°00'0 0.0
2018-Jan-19 19:59N 29°37' W 095°00'0 0.0
2018-Jan-19 19:29N 29°37' W 095°00'0 0.0
2018-Jan-19 18:59N 29°37' W 095°00'0 0.0
2018-Jan-19 18:26N 29°37' W 095°00'0 0.0
2018-Jan-19 17:59N 29°37' W 095°00'0 0.6
2018-Jan-19 17:30N 29°37' W 095°00'0 0.1
2018-Jan-19 17:00N 29°37' W 095°00'1 1.4
2018-Jan-19 16:30N 29°37' W 095°01'2 3.8
2018-Jan-19 16:00N 29°37' W 094°59'3 6.2
2018-Jan-19 15:29N 29°35' W 094°56'3 4.8
2018-Jan-19 14:54N 29°37' W 094°58'2 3.9
2018-Jan-19 14:30N 29°37' W 095°00'0 0.0
2018-Jan-19 14:00N 29°37' W 095°00'0 0.0
2018-Jan-19 13:30N 29°37' W 095°00'0 0.0
2018-Jan-19 13:00N 29°37' W 095°00'0 0.1
2018-Jan-19 12:30N 29°37' W 095°00'0 0.1
2018-Jan-19 12:00N 29°37' W 095°00'1 1.8
2018-Jan-19 11:30N 29°37' W 094°59'3 6.7
2018-Jan-19 11:00N 29°40' W 094°59'3 0.7
2018-Jan-19 06:32N 29°42' W 095°01'0 0.2
2018-Jan-19 06:29N 29°42' W 095°01'0 0.0
2018-Jan-19 02:40N 29°42' W 095°01'0 0.0
2018-Jan-18 07:22N 29°42' W 095°01'1 0.9
2018-Jan-18 05:49N 29°44' W 095°01'1 2.5
2018-Jan-18 05:25N 29°43' W 095°01'0 0.3
2018-Jan-18 03:59N 29°42' W 095°01'2 1.4
2018-Jan-18 02:36N 29°41' W 094°59'0 3.9
2018-Jan-18 02:30N 29°41' W 094°60'0 0.0
2018-Jan-18 02:00N 29°41' W 094°60'0 0.0
2018-Jan-18 01:31N 29°41' W 094°60'0 0.0
2018-Jan-18 00:53N 29°41' W 094°60'0 0.0
2018-Jan-17 23:57N 29°41' W 094°60'  

Dump ship's entire track history